Athol Springs, New York
Current Conditions -  °F | °C
As of 6:54 AM on Monday 26 Jan 2015 (Local Time) from KBUF Reporting Station
Overcast Overcast  
Wind Chill: -2°   Ceiling: 6500
Heat Index: 13°   Visibility: 10mi
Dew Point:   Wind: 14mph
Humidity: 59%   Direction: 60°ENE
Pressure: 29.93"   Gusts: NA
Location:  42.77°N, 78.87°W
Report Text: KBUF 261154Z 06012KT 10SM OVC065 M11/M17 A2993 RMK AO2 SLP152 4/002 T11061172 11094 21106 55003
Loading
Personal Weather Stations






























Interactive Weather Map New forecast layout! Learn more

10-Day Weather Forecast

Advertisements
Track Severe Weather on mobile